sensor_id;sensor_type;location;lat;lon;timestamp;temperature;humidity
13123;DHT22;6627;50.920;12.050;2024-03-02T00:01:52;5.60;99.90
13123;DHT22;6627;50.920;12.050;2024-03-02T00:04:20;5.60;99.90
13123;DHT22;6627;50.920;12.050;2024-03-02T00:06:47;5.60;99.90
13123;DHT22;6627;50.920;12.050;2024-03-02T00:09:34;5.60;99.90
13123;DHT22;6627;50.920;12.050;2024-03-02T00:12:05;5.60;99.90
13123;DHT22;6627;50.920;12.050;2024-03-02T00:14:35;5.60;99.90
13123;DHT22;6627;50.920;12.050;2024-03-02T00:17:09;5.60;99.90
13123;DHT22;6627;50.920;12.050;2024-03-02T00:19:48;5.60;99.90
13123;DHT22;6627;50.920;12.050;2024-03-02T00:22:16;5.60;99.90
13123;DHT22;6627;50.920;12.050;2024-03-02T00:24:43;5.60;99.90
13123;DHT22;6627;50.920;12.050;2024-03-02T00:27:14;5.60;99.90
13123;DHT22;6627;50.920;12.050;2024-03-02T00:29:44;5.60;99.90
13123;DHT22;6627;50.920;12.050;2024-03-02T00:32:16;5.70;99.90
13123;DHT22;6627;50.920;12.050;2024-03-02T00:34:46;5.70;99.90
13123;DHT22;6627;50.920;12.050;2024-03-02T00:37:15;5.70;99.90
13123;DHT22;6627;50.920;12.050;2024-03-02T00:39:48;5.70;99.90
13123;DHT22;6627;50.920;12.050;2024-03-02T00:42:16;5.60;99.90
13123;DHT22;6627;50.920;12.050;2024-03-02T00:44:43;5.60;99.90
13123;DHT22;6627;50.920;12.050;2024-03-02T00:47:13;5.60;99.90
13123;DHT22;6627;50.920;12.050;2024-03-02T00:49:41;5.60;99.90
13123;DHT22;6627;50.920;12.050;2024-03-02T00:52:08;5.60;99.90
13123;DHT22;6627;50.920;12.050;2024-03-02T00:54:39;5.60;99.90
13123;DHT22;6627;50.920;12.050;2024-03-02T00:57:10;5.60;99.90
13123;DHT22;6627;50.920;12.050;2024-03-02T00:59:40;5.60;99.90
13123;DHT22;6627;50.920;12.050;2024-03-02T01:02:10;5.60;99.90
13123;DHT22;6627;50.920;12.050;2024-03-02T01:04:37;5.50;99.90
13123;DHT22;6627;50.920;12.050;2024-03-02T01:07:06;5.60;99.90
13123;DHT22;6627;50.920;12.050;2024-03-02T01:09:33;5.50;99.90
13123;DHT22;6627;50.920;12.050;2024-03-02T01:12:00;5.50;99.90
13123;DHT22;6627;50.920;12.050;2024-03-02T01:14:27;5.50;99.90
13123;DHT22;6627;50.920;12.050;2024-03-02T01:16:57;5.40;99.90
13123;DHT22;6627;50.920;12.050;2024-03-02T01:19:28;5.40;99.90
13123;DHT22;6627;50.920;12.050;2024-03-02T01:21:58;5.40;99.90
13123;DHT22;6627;50.920;12.050;2024-03-02T01:24:29;5.30;99.90
13123;DHT22;6627;50.920;12.050;2024-03-02T01:26:56;5.30;99.90
13123;DHT22;6627;50.920;12.050;2024-03-02T01:29:23;5.30;99.90
13123;DHT22;6627;50.920;12.050;2024-03-02T01:31:51;5.30;99.90
13123;DHT22;6627;50.920;12.050;2024-03-02T01:34:19;5.30;99.90
13123;DHT22;6627;50.920;12.050;2024-03-02T01:37:05;5.20;99.90
13123;DHT22;6627;50.920;12.050;2024-03-02T01:39:36;5.20;99.90
13123;DHT22;6627;50.920;12.050;2024-03-02T01:42:03;5.20;99.90
13123;DHT22;6627;50.920;12.050;2024-03-02T01:44:33;5.10;99.90
13123;DHT22;6627;50.920;12.050;2024-03-02T01:47:02;5.10;99.90
13123;DHT22;6627;50.920;12.050;2024-03-02T01:49:45;5.10;99.90
13123;DHT22;6627;50.920;12.050;2024-03-02T01:52:12;5.00;99.90
13123;DHT22;6627;50.920;12.050;2024-03-02T01:54:41;5.00;99.90
13123;DHT22;6627;50.920;12.050;2024-03-02T01:57:08;5.10;99.90
13123;DHT22;6627;50.920;12.050;2024-03-02T01:59:36;5.10;99.90
13123;DHT22;6627;50.920;12.050;2024-03-02T02:02:06;5.10;99.90
13123;DHT22;6627;50.920;12.050;2024-03-02T02:04:36;5.00;99.90
13123;DHT22;6627;50.920;12.050;2024-03-02T02:07:06;5.00;99.90
13123;DHT22;6627;50.920;12.050;2024-03-02T02:09:33;5.00;99.90
13123;DHT22;6627;50.920;12.050;2024-03-02T02:12:02;5.00;99.90
13123;DHT22;6627;50.920;12.050;2024-03-02T02:14:32;5.00;99.90
13123;DHT22;6627;50.920;12.050;2024-03-02T02:16:59;5.00;99.90
13123;DHT22;6627;50.920;12.050;2024-03-02T02:19:27;5.00;99.90
13123;DHT22;6627;50.920;12.050;2024-03-02T02:21:59;5.00;99.90
13123;DHT22;6627;50.920;12.050;2024-03-02T02:24:29;5.00;99.90
13123;DHT22;6627;50.920;12.050;2024-03-02T02:26:59;4.90;99.90
13123;DHT22;6627;50.920;12.050;2024-03-02T02:29:28;4.80;99.90
13123;DHT22;6627;50.920;12.050;2024-03-02T02:31:55;4.70;99.90
13123;DHT22;6627;50.920;12.050;2024-03-02T02:34:22;4.80;99.90
13123;DHT22;6627;50.920;12.050;2024-03-02T02:36:50;4.80;99.90
13123;DHT22;6627;50.920;12.050;2024-03-02T02:39:20;4.80;99.90
13123;DHT22;6627;50.920;12.050;2024-03-02T02:41:49;4.80;99.90
13123;DHT22;6627;50.920;12.050;2024-03-02T02:44:25;4.70;99.90
13123;DHT22;6627;50.920;12.050;2024-03-02T02:46:52;4.60;99.90
13123;DHT22;6627;50.920;12.050;2024-03-02T02:49:21;4.70;99.90
13123;DHT22;6627;50.920;12.050;2024-03-02T02:51:50;4.60;99.90
13123;DHT22;6627;50.920;12.050;2024-03-02T02:54:18;4.50;99.90
13123;DHT22;6627;50.920;12.050;2024-03-02T02:56:45;4.60;99.90
13123;DHT22;6627;50.920;12.050;2024-03-02T02:59:13;4.60;99.90
13123;DHT22;6627;50.920;12.050;2024-03-02T03:01:40;4.50;99.90
13123;DHT22;6627;50.920;12.050;2024-03-02T03:04:10;4.40;99.90
13123;DHT22;6627;50.920;12.050;2024-03-02T03:06:37;4.30;99.90
13123;DHT22;6627;50.920;12.050;2024-03-02T03:09:06;4.10;99.90
13123;DHT22;6627;50.920;12.050;2024-03-02T03:11:36;4.10;99.90
13123;DHT22;6627;50.920;12.050;2024-03-02T03:14:05;4.20;99.90
13123;DHT22;6627;50.920;12.050;2024-03-02T03:16:32;4.20;99.90
13123;DHT22;6627;50.920;12.050;2024-03-02T03:19:00;4.10;99.90
13123;DHT22;6627;50.920;12.050;2024-03-02T03:21:27;4.10;99.90
13123;DHT22;6627;50.920;12.050;2024-03-02T03:23:55;4.20;99.90
13123;DHT22;6627;50.920;12.050;2024-03-02T03:26:25;4.30;99.90
13123;DHT22;6627;50.920;12.050;2024-03-02T03:28:56;4.30;99.90
13123;DHT22;6627;50.920;12.050;2024-03-02T03:31:27;4.30;99.90
13123;DHT22;6627;50.920;12.050;2024-03-02T03:33:57;4.30;99.90
13123;DHT22;6627;50.920;12.050;2024-03-02T03:36:27;4.30;99.90
13123;DHT22;6627;50.920;12.050;2024-03-02T03:38:54;4.30;99.90
13123;DHT22;6627;50.920;12.050;2024-03-02T03:41:21;4.30;99.90
13123;DHT22;6627;50.920;12.050;2024-03-02T03:43:48;4.40;99.90
13123;DHT22;6627;50.920;12.050;2024-03-02T03:46:17;4.40;99.90
13123;DHT22;6627;50.920;12.050;2024-03-02T03:48:45;4.40;99.90
13123;DHT22;6627;50.920;12.050;2024-03-02T03:51:15;4.40;99.90
13123;DHT22;6627;50.920;12.050;2024-03-02T03:53:45;4.40;99.90
13123;DHT22;6627;50.920;12.050;2024-03-02T03:56:14;4.50;99.90
13123;DHT22;6627;50.920;12.050;2024-03-02T03:58:42;4.50;99.90
13123;DHT22;6627;50.920;12.050;2024-03-02T04:01:10;4.50;99.90
13123;DHT22;6627;50.920;12.050;2024-03-02T04:03:39;4.60;99.90
13123;DHT22;6627;50.920;12.050;2024-03-02T04:06:06;4.60;99.90
13123;DHT22;6627;50.920;12.050;2024-03-02T04:08:33;4.70;99.90
13123;DHT22;6627;50.920;12.050;2024-03-02T04:11:03;4.80;99.90
13123;DHT22;6627;50.920;12.050;2024-03-02T04:13:33;4.80;99.90
13123;DHT22;6627;50.920;12.050;2024-03-02T04:16:04;4.90;99.90
13123;DHT22;6627;50.920;12.050;2024-03-02T04:18:34;4.90;99.90
13123;DHT22;6627;50.920;12.050;2024-03-02T04:21:03;4.90;99.90
13123;DHT22;6627;50.920;12.050;2024-03-02T04:23:31;5.00;99.90
13123;DHT22;6627;50.920;12.050;2024-03-02T04:25:58;5.00;99.90
13123;DHT22;6627;50.920;12.050;2024-03-02T04:28:25;5.00;99.90
13123;DHT22;6627;50.920;12.050;2024-03-02T04:30:52;5.00;99.90
13123;DHT22;6627;50.920;12.050;2024-03-02T04:33:22;5.10;99.90
13123;DHT22;6627;50.920;12.050;2024-03-02T04:35:52;5.10;99.90
13123;DHT22;6627;50.920;12.050;2024-03-02T04:38:23;5.20;99.90
13123;DHT22;6627;50.920;12.050;2024-03-02T04:40:51;5.20;99.90
13123;DHT22;6627;50.920;12.050;2024-03-02T04:43:18;5.20;99.90
13123;DHT22;6627;50.920;12.050;2024-03-02T04:45:46;5.30;99.90
13123;DHT22;6627;50.920;12.050;2024-03-02T04:48:13;5.30;99.90
13123;DHT22;6627;50.920;12.050;2024-03-02T04:50:40;5.30;99.90
13123;DHT22;6627;50.920;12.050;2024-03-02T04:53:29;5.30;99.90
13123;DHT22;6627;50.920;12.050;2024-03-02T04:55:57;5.30;99.90
13123;DHT22;6627;50.920;12.050;2024-03-02T04:58:45;5.30;99.90
13123;DHT22;6627;50.920;12.050;2024-03-02T05:01:15;5.30;99.90
13123;DHT22;6627;50.920;12.050;2024-03-02T05:03:45;5.20;99.90
13123;DHT22;6627;50.920;12.050;2024-03-02T05:06:14;5.20;99.90
13123;DHT22;6627;50.920;12.050;2024-03-02T05:08:58;5.20;99.90
13123;DHT22;6627;50.920;12.050;2024-03-02T05:11:25;5.20;99.90
13123;DHT22;6627;50.920;12.050;2024-03-02T05:16:48;5.20;99.90
13123;DHT22;6627;50.920;12.050;2024-03-02T05:19:18;5.10;99.90
13123;DHT22;6627;50.920;12.050;2024-03-02T05:21:48;5.00;99.90
13123;DHT22;6627;50.920;12.050;2024-03-02T05:24:20;5.00;99.90
13123;DHT22;6627;50.920;12.050;2024-03-02T05:27:03;4.90;99.90
13123;DHT22;6627;50.920;12.050;2024-03-02T05:29:32;4.80;99.90
13123;DHT22;6627;50.920;12.050;2024-03-02T05:34:43;4.80;99.90
13123;DHT22;6627;50.920;12.050;2024-03-02T05:37:26;4.80;99.90
13123;DHT22;6627;50.920;12.050;2024-03-02T05:39:58;4.80;99.90
13123;DHT22;6627;50.920;12.050;2024-03-02T05:42:28;4.80;99.90
13123;DHT22;6627;50.920;12.050;2024-03-02T05:44:58;4.80;99.90
13123;DHT22;6627;50.920;12.050;2024-03-02T05:47:27;4.90;99.90
13123;DHT22;6627;50.920;12.050;2024-03-02T05:49:54;4.90;99.90
13123;DHT22;6627;50.920;12.050;2024-03-02T05:52:21;4.90;99.90
13123;DHT22;6627;50.920;12.050;2024-03-02T05:54:49;4.90;99.90
13123;DHT22;6627;50.920;12.050;2024-03-02T05:57:17;5.00;99.90
13123;DHT22;6627;50.920;12.050;2024-03-02T05:59:58;5.00;99.90
13123;DHT22;6627;50.920;12.050;2024-03-02T06:02:29;5.10;99.90
13123;DHT22;6627;50.920;12.050;2024-03-02T06:04:59;5.20;99.90
13123;DHT22;6627;50.920;12.050;2024-03-02T06:07:28;5.30;99.90
13123;DHT22;6627;50.920;12.050;2024-03-02T06:09:55;5.40;99.90
13123;DHT22;6627;50.920;12.050;2024-03-02T06:12:23;5.40;99.90
13123;DHT22;6627;50.920;12.050;2024-03-02T06:14:51;5.60;99.90
13123;DHT22;6627;50.920;12.050;2024-03-02T06:19:45;5.70;99.90
13123;DHT22;6627;50.920;12.050;2024-03-02T06:22:15;5.70;99.90
13123;DHT22;6627;50.920;12.050;2024-03-02T06:24:45;5.70;99.90
13123;DHT22;6627;50.920;12.050;2024-03-02T06:27:14;5.70;99.90
13123;DHT22;6627;50.920;12.050;2024-03-02T06:29:45;5.80;99.90
13123;DHT22;6627;50.920;12.050;2024-03-02T06:32:12;5.80;99.90
13123;DHT22;6627;50.920;12.050;2024-03-02T06:37:07;5.80;99.90
13123;DHT22;6627;50.920;12.050;2024-03-02T06:39:34;5.90;99.90
13123;DHT22;6627;50.920;12.050;2024-03-02T06:42:02;5.90;99.90
13123;DHT22;6627;50.920;12.050;2024-03-02T06:44:30;5.90;99.90
13123;DHT22;6627;50.920;12.050;2024-03-02T06:46:59;5.90;99.90
13123;DHT22;6627;50.920;12.050;2024-03-02T06:49:29;5.90;99.90
13123;DHT22;6627;50.920;12.050;2024-03-02T06:51:58;5.90;99.90
13123;DHT22;6627;50.920;12.050;2024-03-02T06:54:25;6.00;99.90
13123;DHT22;6627;50.920;12.050;2024-03-02T06:56:52;6.00;99.90
13123;DHT22;6627;50.920;12.050;2024-03-02T06:59:19;6.00;99.90
13123;DHT22;6627;50.920;12.050;2024-03-02T07:01:46;6.00;99.90
13123;DHT22;6627;50.920;12.050;2024-03-02T07:04:34;6.00;99.90
13123;DHT22;6627;50.920;12.050;2024-03-02T07:07:03;6.00;99.90
13123;DHT22;6627;50.920;12.050;2024-03-02T07:09:33;6.10;99.90
13123;DHT22;6627;50.920;12.050;2024-03-02T07:12:04;6.00;99.90
13123;DHT22;6627;50.920;12.050;2024-03-02T07:14:34;6.00;99.90
13123;DHT22;6627;50.920;12.050;2024-03-02T07:17:18;6.10;99.90
13123;DHT22;6627;50.920;12.050;2024-03-02T07:19:47;6.10;99.90
13123;DHT22;6627;50.920;12.050;2024-03-02T07:22:14;6.10;99.90
13123;DHT22;6627;50.920;12.050;2024-03-02T07:24:41;6.20;99.90
13123;DHT22;6627;50.920;12.050;2024-03-02T07:27:13;6.20;99.90
13123;DHT22;6627;50.920;12.050;2024-03-02T07:29:43;6.20;99.90
13123;DHT22;6627;50.920;12.050;2024-03-02T07:32:13;6.20;99.90
13123;DHT22;6627;50.920;12.050;2024-03-02T07:34:41;6.30;99.90
13123;DHT22;6627;50.920;12.050;2024-03-02T07:37:10;6.30;99.90
13123;DHT22;6627;50.920;12.050;2024-03-02T07:39:37;6.30;99.90
13123;DHT22;6627;50.920;12.050;2024-03-02T07:42:05;6.30;99.90
13123;DHT22;6627;50.920;12.050;2024-03-02T07:44:32;6.30;99.90
13123;DHT22;6627;50.920;12.050;2024-03-02T07:46:59;6.30;99.90
13123;DHT22;6627;50.920;12.050;2024-03-02T07:49:29;6.40;99.90
13123;DHT22;6627;50.920;12.050;2024-03-02T07:52:00;6.40;99.90
13123;DHT22;6627;50.920;12.050;2024-03-02T07:54:31;6.50;99.90
13123;DHT22;6627;50.920;12.050;2024-03-02T07:57:00;6.50;99.90
13123;DHT22;6627;50.920;12.050;2024-03-02T07:59:27;6.60;99.90
13123;DHT22;6627;50.920;12.050;2024-03-02T08:04:40;6.70;99.90
13123;DHT22;6627;50.920;12.050;2024-03-02T08:07:07;6.80;99.90
13123;DHT22;6627;50.920;12.050;2024-03-02T08:09:36;6.90;99.90
13123;DHT22;6627;50.920;12.050;2024-03-02T08:12:05;6.90;99.90
13123;DHT22;6627;50.920;12.050;2024-03-02T08:14:35;6.90;99.90
13123;DHT22;6627;50.920;12.050;2024-03-02T08:17:05;7.00;99.90
13123;DHT22;6627;50.920;12.050;2024-03-02T08:19:35;7.10;99.90
13123;DHT22;6627;50.920;12.050;2024-03-02T08:22:03;7.10;99.90
13123;DHT22;6627;50.920;12.050;2024-03-02T08:24:31;7.10;99.90
13123;DHT22;6627;50.920;12.050;2024-03-02T08:27:00;7.20;99.90
13123;DHT22;6627;50.920;12.050;2024-03-02T08:29:27;7.30;99.90
13123;DHT22;6627;50.920;12.050;2024-03-02T08:32:03;7.30;99.90
13123;DHT22;6627;50.920;12.050;2024-03-02T08:34:34;7.30;99.90
13123;DHT22;6627;50.920;12.050;2024-03-02T08:37:03;7.40;99.90
13123;DHT22;6627;50.920;12.050;2024-03-02T08:39:33;7.40;99.90
13123;DHT22;6627;50.920;12.050;2024-03-02T08:42:05;7.50;99.90
13123;DHT22;6627;50.920;12.050;2024-03-02T08:47:00;7.70;99.90
13123;DHT22;6627;50.920;12.050;2024-03-02T08:49:27;7.70;99.90
13123;DHT22;6627;50.920;12.050;2024-03-02T08:51:54;7.70;99.90
13123;DHT22;6627;50.920;12.050;2024-03-02T08:54:24;7.80;99.90
13123;DHT22;6627;50.920;12.050;2024-03-02T08:56:54;7.80;99.90
13123;DHT22;6627;50.920;12.050;2024-03-02T08:59:26;7.90;99.90
13123;DHT22;6627;50.920;12.050;2024-03-02T09:01:57;8.00;99.90
13123;DHT22;6627;50.920;12.050;2024-03-02T09:04:25;8.10;99.90
13123;DHT22;6627;50.920;12.050;2024-03-02T09:06:52;8.20;99.90
13123;DHT22;6627;50.920;12.050;2024-03-02T09:09:19;8.20;99.90
13123;DHT22;6627;50.920;12.050;2024-03-02T09:11:47;8.30;99.90
13123;DHT22;6627;50.920;12.050;2024-03-02T09:14:15;8.30;99.90
13123;DHT22;6627;50.920;12.050;2024-03-02T09:16:44;8.40;99.90
13123;DHT22;6627;50.920;12.050;2024-03-02T09:19:14;8.50;99.90
13123;DHT22;6627;50.920;12.050;2024-03-02T09:21:42;8.50;99.90
13123;DHT22;6627;50.920;12.050;2024-03-02T09:26:41;8.70;99.90
13123;DHT22;6627;50.920;12.050;2024-03-02T09:29:08;8.80;99.90
13123;DHT22;6627;50.920;12.050;2024-03-02T09:31:39;8.80;99.90
13123;DHT22;6627;50.920;12.050;2024-03-02T09:34:08;8.90;99.90
13123;DHT22;6627;50.920;12.050;2024-03-02T09:36:36;8.90;99.90
13123;DHT22;6627;50.920;12.050;2024-03-02T09:39:05;9.00;99.90
13123;DHT22;6627;50.920;12.050;2024-03-02T09:41:38;9.00;99.90
13123;DHT22;6627;50.920;12.050;2024-03-02T09:44:09;9.10;99.90
13123;DHT22;6627;50.920;12.050;2024-03-02T09:46:37;9.10;99.90
13123;DHT22;6627;50.920;12.050;2024-03-02T09:49:04;9.20;99.90
13123;DHT22;6627;50.920;12.050;2024-03-02T09:51:33;9.30;99.90
13123;DHT22;6627;50.920;12.050;2024-03-02T09:54:02;9.30;99.90
13123;DHT22;6627;50.920;12.050;2024-03-02T09:56:29;9.40;99.90
13123;DHT22;6627;50.920;12.050;2024-03-02T09:59:16;9.40;99.90
13123;DHT22;6627;50.920;12.050;2024-03-02T10:01:58;9.40;99.90
13123;DHT22;6627;50.920;12.050;2024-03-02T10:04:29;9.50;99.90
13123;DHT22;6627;50.920;12.050;2024-03-02T10:07:11;9.50;99.90
13123;DHT22;6627;50.920;12.050;2024-03-02T10:09:40;9.50;99.90
13123;DHT22;6627;50.920;12.050;2024-03-02T10:12:10;9.60;99.90
13123;DHT22;6627;50.920;12.050;2024-03-02T10:14:38;9.70;99.90
13123;DHT22;6627;50.920;12.050;2024-03-02T10:17:07;9.70;99.90
13123;DHT22;6627;50.920;12.050;2024-03-02T10:19:36;9.80;99.90
13123;DHT22;6627;50.920;12.050;2024-03-02T10:22:08;9.90;99.90
13123;DHT22;6627;50.920;12.050;2024-03-02T10:24:39;9.90;99.90
13123;DHT22;6627;50.920;12.050;2024-03-02T10:27:10;10.00;99.90
13123;DHT22;6627;50.920;12.050;2024-03-02T10:29:47;10.10;99.90
13123;DHT22;6627;50.920;12.050;2024-03-02T10:32:16;10.20;99.90
13123;DHT22;6627;50.920;12.050;2024-03-02T10:34:44;10.40;99.90
13123;DHT22;6627;50.920;12.050;2024-03-02T10:37:14;10.60;99.90
13123;DHT22;6627;50.920;12.050;2024-03-02T10:39:46;10.90;99.90
13123;DHT22;6627;50.920;12.050;2024-03-02T10:42:14;11.00;99.90
13123;DHT22;6627;50.920;12.050;2024-03-02T10:44:45;11.00;99.90
13123;DHT22;6627;50.920;12.050;2024-03-02T10:47:14;10.90;99.90
13123;DHT22;6627;50.920;12.050;2024-03-02T10:49:47;10.90;99.90
13123;DHT22;6627;50.920;12.050;2024-03-02T10:52:21;11.00;99.90
13123;DHT22;6627;50.920;12.050;2024-03-02T10:54:50;11.00;99.90
13123;DHT22;6627;50.920;12.050;2024-03-02T10:57:21;11.20;99.90
13123;DHT22;6627;50.920;12.050;2024-03-02T10:59:52;11.20;99.90
13123;DHT22;6627;50.920;12.050;2024-03-02T11:02:24;11.30;99.90
13123;DHT22;6627;50.920;12.050;2024-03-02T11:05:11;11.30;99.90
13123;DHT22;6627;50.920;12.050;2024-03-02T11:07:42;11.50;99.90
13123;DHT22;6627;50.920;12.050;2024-03-02T11:10:13;11.50;99.90
13123;DHT22;6627;50.920;12.050;2024-03-02T11:12:53;11.60;99.90
13123;DHT22;6627;50.920;12.050;2024-03-02T11:15:28;11.80;99.90
13123;DHT22;6627;50.920;12.050;2024-03-02T11:17:56;12.10;99.90
13123;DHT22;6627;50.920;12.050;2024-03-02T11:20:25;12.30;99.90
13123;DHT22;6627;50.920;12.050;2024-03-02T11:22:54;12.40;99.90
13123;DHT22;6627;50.920;12.050;2024-03-02T11:25:27;12.60;99.90
13123;DHT22;6627;50.920;12.050;2024-03-02T11:28:04;12.70;99.90
13123;DHT22;6627;50.920;12.050;2024-03-02T11:30:52;12.80;99.90
13123;DHT22;6627;50.920;12.050;2024-03-02T11:33:26;12.80;99.90
13123;DHT22;6627;50.920;12.050;2024-03-02T11:36:00;12.80;99.90
13123;DHT22;6627;50.920;12.050;2024-03-02T11:38:32;13.00;99.90
13123;DHT22;6627;50.920;12.050;2024-03-02T11:41:02;13.10;99.90
13123;DHT22;6627;50.920;12.050;2024-03-02T11:43:37;13.10;99.90
13123;DHT22;6627;50.920;12.050;2024-03-02T11:46:06;13.10;99.90
13123;DHT22;6627;50.920;12.050;2024-03-02T11:48:37;13.10;99.90
13123;DHT22;6627;50.920;12.050;2024-03-02T11:51:08;13.30;99.90
13123;DHT22;6627;50.920;12.050;2024-03-02T11:53:38;13.40;99.90
13123;DHT22;6627;50.920;12.050;2024-03-02T11:56:09;13.30;99.90
13123;DHT22;6627;50.920;12.050;2024-03-02T11:58:40;13.40;99.90
13123;DHT22;6627;50.920;12.050;2024-03-02T12:01:09;13.40;99.90
13123;DHT22;6627;50.920;12.050;2024-03-02T12:03:38;13.60;99.90
13123;DHT22;6627;50.920;12.050;2024-03-02T12:06:06;13.30;99.90
13123;DHT22;6627;50.920;12.050;2024-03-02T12:08:33;13.60;99.90
13123;DHT22;6627;50.920;12.050;2024-03-02T12:11:04;13.70;99.90
13123;DHT22;6627;50.920;12.050;2024-03-02T12:13:33;13.70;99.90
13123;DHT22;6627;50.920;12.050;2024-03-02T12:16:03;13.90;99.90
13123;DHT22;6627;50.920;12.050;2024-03-02T12:18:34;14.00;99.90
13123;DHT22;6627;50.920;12.050;2024-03-02T12:21:02;14.00;99.90
13123;DHT22;6627;50.920;12.050;2024-03-02T12:23:36;13.60;99.90
13123;DHT22;6627;50.920;12.050;2024-03-02T12:26:03;13.30;99.90
13123;DHT22;6627;50.920;12.050;2024-03-02T12:28:33;13.40;99.90
13123;DHT22;6627;50.920;12.050;2024-03-02T12:31:01;13.40;99.90
13123;DHT22;6627;50.920;12.050;2024-03-02T12:33:31;13.50;99.90
13123;DHT22;6627;50.920;12.050;2024-03-02T12:36:01;13.90;99.90
13123;DHT22;6627;50.920;12.050;2024-03-02T12:38:30;14.00;99.90
13123;DHT22;6627;50.920;12.050;2024-03-02T12:41:01;14.10;99.90
13123;DHT22;6627;50.920;12.050;2024-03-02T12:43:30;14.20;99.90
13123;DHT22;6627;50.920;12.050;2024-03-02T12:45:59;14.20;99.90
13123;DHT22;6627;50.920;12.050;2024-03-02T12:48:26;14.00;99.90
13123;DHT22;6627;50.920;12.050;2024-03-02T12:50:54;14.00;99.90
13123;DHT22;6627;50.920;12.050;2024-03-02T12:53:22;14.10;99.90
13123;DHT22;6627;50.920;12.050;2024-03-02T12:55:52;14.20;99.90
13123;DHT22;6627;50.920;12.050;2024-03-02T12:58:24;14.30;99.90
13123;DHT22;6627;50.920;12.050;2024-03-02T13:01:07;14.30;99.90
13123;DHT22;6627;50.920;12.050;2024-03-02T13:03:36;14.50;99.90
13123;DHT22;6627;50.920;12.050;2024-03-02T13:06:05;14.50;99.90
13123;DHT22;6627;50.920;12.050;2024-03-02T13:08:34;14.60;99.90
13123;DHT22;6627;50.920;12.050;2024-03-02T13:11:01;14.60;99.90
13123;DHT22;6627;50.920;12.050;2024-03-02T13:13:30;14.60;99.90
13123;DHT22;6627;50.920;12.050;2024-03-02T13:16:02;14.60;99.90
13123;DHT22;6627;50.920;12.050;2024-03-02T13:18:33;14.40;99.90
13123;DHT22;6627;50.920;12.050;2024-03-02T13:21:03;14.40;99.90
13123;DHT22;6627;50.920;12.050;2024-03-02T13:23:33;14.70;99.90
13123;DHT22;6627;50.920;12.050;2024-03-02T13:26:03;14.70;99.90
13123;DHT22;6627;50.920;12.050;2024-03-02T13:28:30;14.80;99.90
13123;DHT22;6627;50.920;12.050;2024-03-02T13:30:57;14.70;99.90
13123;DHT22;6627;50.920;12.050;2024-03-02T13:33:25;14.70;99.90
13123;DHT22;6627;50.920;12.050;2024-03-02T13:35:54;14.60;99.90
13123;DHT22;6627;50.920;12.050;2024-03-02T13:38:39;14.60;99.90
13123;DHT22;6627;50.920;12.050;2024-03-02T13:41:06;14.70;99.90
13123;DHT22;6627;50.920;12.050;2024-03-02T13:43:36;14.70;99.90
13123;DHT22;6627;50.920;12.050;2024-03-02T13:46:06;14.90;99.90
13123;DHT22;6627;50.920;12.050;2024-03-02T13:48:33;14.90;99.90
13123;DHT22;6627;50.920;12.050;2024-03-02T13:51:02;14.80;99.90
13123;DHT22;6627;50.920;12.050;2024-03-02T13:53:30;14.90;99.90
13123;DHT22;6627;50.920;12.050;2024-03-02T13:55:58;14.70;99.90
13123;DHT22;6627;50.920;12.050;2024-03-02T13:58:25;14.50;99.90
13123;DHT22;6627;50.920;12.050;2024-03-02T14:00:54;14.30;99.90
13123;DHT22;6627;50.920;12.050;2024-03-02T14:03:26;14.20;99.90
13123;DHT22;6627;50.920;12.050;2024-03-02T14:05:56;14.50;99.90
13123;DHT22;6627;50.920;12.050;2024-03-02T14:08:28;14.60;99.90
13123;DHT22;6627;50.920;12.050;2024-03-02T14:11:11;14.60;99.90
13123;DHT22;6627;50.920;12.050;2024-03-02T14:13:40;14.80;99.90
13123;DHT22;6627;50.920;12.050;2024-03-02T14:16:10;14.90;99.90
13123;DHT22;6627;50.920;12.050;2024-03-02T14:18:37;14.80;99.90
13123;DHT22;6627;50.920;12.050;2024-03-02T14:21:25;14.90;99.90
13123;DHT22;6627;50.920;12.050;2024-03-02T14:23:56;14.80;99.90
13123;DHT22;6627;50.920;12.050;2024-03-02T14:26:26;14.40;99.90
13123;DHT22;6627;50.920;12.050;2024-03-02T14:28:56;14.50;99.90
13123;DHT22;6627;50.920;12.050;2024-03-02T14:31:26;14.80;99.90
13123;DHT22;6627;50.920;12.050;2024-03-02T14:33:53;14.90;99.90
13123;DHT22;6627;50.920;12.050;2024-03-02T14:36:21;15.00;99.90
13123;DHT22;6627;50.920;12.050;2024-03-02T14:38:49;14.80;99.90
13123;DHT22;6627;50.920;12.050;2024-03-02T14:41:18;14.80;99.90
13123;DHT22;6627;50.920;12.050;2024-03-02T14:44:04;14.90;99.90
13123;DHT22;6627;50.920;12.050;2024-03-02T14:46:32;14.90;99.90
13123;DHT22;6627;50.920;12.050;2024-03-02T14:49:00;14.90;99.90
13123;DHT22;6627;50.920;12.050;2024-03-02T14:51:30;14.80;99.90
13123;DHT22;6627;50.920;12.050;2024-03-02T14:53:58;14.90;99.90
13123;DHT22;6627;50.920;12.050;2024-03-02T14:56:26;14.90;99.90
13123;DHT22;6627;50.920;12.050;2024-03-02T14:58:54;14.80;99.90
13123;DHT22;6627;50.920;12.050;2024-03-02T15:01:21;14.90;99.90
13123;DHT22;6627;50.920;12.050;2024-03-02T15:03:50;14.80;99.90
13123;DHT22;6627;50.920;12.050;2024-03-02T15:06:20;14.90;99.90
13123;DHT22;6627;50.920;12.050;2024-03-02T15:08:50;14.90;99.90
13123;DHT22;6627;50.920;12.050;2024-03-02T15:11:19;14.80;99.90
13123;DHT22;6627;50.920;12.050;2024-03-02T15:13:50;14.80;99.90
13123;DHT22;6627;50.920;12.050;2024-03-02T15:16:18;14.70;99.90
13123;DHT22;6627;50.920;12.050;2024-03-02T15:18:45;14.90;99.90
13123;DHT22;6627;50.920;12.050;2024-03-02T15:21:12;15.00;99.90
13123;DHT22;6627;50.920;12.050;2024-03-02T15:23:40;15.20;99.90
13123;DHT22;6627;50.920;12.050;2024-03-02T15:26:12;15.00;99.90
13123;DHT22;6627;50.920;12.050;2024-03-02T15:28:40;15.10;99.90
13123;DHT22;6627;50.920;12.050;2024-03-02T15:31:11;15.20;99.90
13123;DHT22;6627;50.920;12.050;2024-03-02T15:33:40;15.00;99.90
13123;DHT22;6627;50.920;12.050;2024-03-02T15:36:10;14.90;99.90
13123;DHT22;6627;50.920;12.050;2024-03-02T15:38:38;15.00;99.90
13123;DHT22;6627;50.920;12.050;2024-03-02T15:41:05;15.10;99.90
13123;DHT22;6627;50.920;12.050;2024-03-02T15:43:32;15.10;99.90
13123;DHT22;6627;50.920;12.050;2024-03-02T15:46:01;15.00;99.90
13123;DHT22;6627;50.920;12.050;2024-03-02T15:48:48;14.70;99.90
13123;DHT22;6627;50.920;12.050;2024-03-02T15:51:18;14.70;99.90
13123;DHT22;6627;50.920;12.050;2024-03-02T15:53:49;14.80;99.90
13123;DHT22;6627;50.920;12.050;2024-03-02T15:56:19;14.60;99.90
13123;DHT22;6627;50.920;12.050;2024-03-02T15:58:49;14.60;99.90
13123;DHT22;6627;50.920;12.050;2024-03-02T16:01:17;14.60;99.90
13123;DHT22;6627;50.920;12.050;2024-03-02T16:03:45;14.50;99.90
13123;DHT22;6627;50.920;12.050;2024-03-02T16:06:14;14.10;99.90
13123;DHT22;6627;50.920;12.050;2024-03-02T16:08:41;14.00;99.90
13123;DHT22;6627;50.920;12.050;2024-03-02T16:11:11;14.10;99.90
13123;DHT22;6627;50.920;12.050;2024-03-02T16:13:41;14.10;99.90
13123;DHT22;6627;50.920;12.050;2024-03-02T16:16:11;14.00;99.90